Time;durP1;ratioP1;P1;durP2;ratioP2;P2;SDS_P1;SDS_P2;PMS_P1;PMS_P2;Temp;Humidity;BMP_temperature;BMP_pressure;BME280_temperature;BME280_humidity;BME280_pressure;Samples;Min_cycle;Max_cycle;Signal;HPM_P1;HPM_P2
2022/09/08 00:01:22;;;;;;;2.88;1.30;;;21.80;61.40;;;;;;4991925;28;20046;-52
2022/09/08 00:03:51;;;;;;;1.83;1.63;;;21.80;61.80;;;;;;4994826;28;20046;-52
2022/09/08 00:06:22;;;;;;;2.60;1.50;;;21.70;61.70;;;;;;4988408;28;20427;-46
2022/09/08 00:08:55;;;;;;;1.67;1.17;;;21.70;61.80;;;;;;4997631;28;20284;-48
2022/09/08 00:11:24;;;;;;;1.83;1.50;;;21.70;61.70;;;;;;4998795;28;20064;-49
2022/09/08 00:13:51;;;;;;;1.17;1.08;;;21.60;61.70;;;;;;5004421;28;20045;-47
2022/09/08 00:16:18;;;;;;;1.88;1.30;;;21.60;61.70;;;;;;5010312;28;20030;-47
2022/09/08 00:18:50;;;;;;;1.92;1.55;;;21.60;61.80;;;;;;5001673;28;20038;-48
2022/09/08 00:21:25;;;;;;;2.55;1.30;;;21.60;62.00;;;;;;5002015;28;20053;-51
2022/09/08 00:23:52;;;;;;;1.55;1.25;;;21.60;62.10;;;;;;4994653;28;20042;-52
2022/09/08 00:26:20;;;;;;;2.47;1.45;;;21.60;62.20;;;;;;4993231;28;20045;-50
2022/09/08 00:28:48;;;;;;;1.98;1.30;;;21.50;62.30;;;;;;4999424;28;20046;-52
2022/09/08 00:31:19;;;;;;;2.90;1.40;;;21.60;62.50;;;;;;4996098;28;20040;-50
2022/09/08 00:33:46;;;;;;;3.88;1.88;;;21.60;62.60;;;;;;5009659;28;20044;-49
2022/09/08 00:36:17;;;;;;;2.03;1.20;;;21.60;63.50;;;;;;5007513;28;20057;-49
2022/09/08 00:38:51;;;;;;;1.90;1.13;;;21.50;63.40;;;;;;5008132;28;20534;-49
2022/09/08 00:41:21;;;;;;;1.52;1.30;;;21.60;63.70;;;;;;4996601;28;20090;-48
2022/09/08 00:43:59;;;;;;;4.30;1.63;;;21.60;63.60;;;;;;5013297;28;20041;-49
2022/09/08 00:46:39;;;;;;;2.47;1.77;;;21.60;63.70;;;;;;5003776;28;20053;-48
2022/09/08 00:49:18;;;;;;;2.22;1.60;;;21.60;62.50;;;;;;4997306;28;20491;-47
2022/09/08 00:51:53;;;;;;;2.78;1.67;;;21.60;62.10;;;;;;5000831;28;20049;-47
2022/09/08 00:54:22;;;;;;;1.85;1.60;;;21.60;61.80;;;;;;4993906;28;20046;-51
2022/09/08 00:56:50;;;;;;;2.38;2.05;;;21.60;61.80;;;;;;5000293;28;20049;-50
2022/09/08 00:59:22;;;;;;;;;;;21.60;61.70;;;;;;4986272;28;20450;-52
2022/09/08 01:01:52;;;;;;;2.90;1.98;;;21.70;61.50;;;;;;4992698;28;20044;-48
2022/09/08 01:04:21;;;;;;;3.88;2.10;;;21.70;62.20;;;;;;4993748;28;20048;-50
2022/09/08 01:13:07;;;;;;;3.83;2.28;;;21.70;62.40;;;;;;4976767;28;20049;-53
2022/09/08 01:15:36;;;;;;;5.07;2.10;;;21.70;62.50;;;;;;5005217;28;20037;-48
2022/09/08 01:18:03;;;;;;;3.10;2.45;;;21.70;62.40;;;;;;5003167;28;20403;-48
2022/09/08 01:20:47;;;;;;;5.00;2.30;;;21.70;62.60;;;;;;4993414;28;20046;-50
2022/09/08 01:23:33;;;;;;;3.25;2.38;;;21.70;63.40;;;;;;4991889;28;20054;-49
2022/09/08 01:26:13;;;;;;;2.92;1.98;;;21.70;63.70;;;;;;5001669;28;20046;-49
2022/09/08 01:28:49;;;;;;;3.97;2.35;;;21.70;64.80;;;;;;5004622;28;20034;-48
2022/09/08 01:31:18;;;;;;;2.97;2.10;;;21.80;64.50;;;;;;5012268;28;20060;-52
2022/09/08 01:33:45;;;;;;;3.92;2.42;;;21.70;63.90;;;;;;5002906;28;20046;-52
2022/09/08 01:36:16;;;;;;;3.78;2.10;;;21.70;63.80;;;;;;5003645;28;20042;-49
2022/09/08 01:38:43;;;;;;;2.20;2.00;;;21.70;63.90;;;;;;5007869;28;20050;-47
2022/09/08 01:41:10;;;;;;;3.22;2.03;;;21.70;64.20;;;;;;5009058;28;20100;-52
2022/09/08 01:43:42;;;;;;;5.40;2.72;;;21.70;64.40;;;;;;5000138;28;20100;-49
2022/09/08 01:46:09;;;;;;;5.68;2.63;;;21.70;64.50;;;;;;5003833;28;20470;-48
2022/09/08 01:48:36;;;;;;;5.50;2.30;;;21.70;64.10;;;;;;5006517;28;20101;-47
2022/09/08 01:51:08;;;;;;;3.53;1.73;;;21.70;64.40;;;;;;4973302;28;20138;-50
2022/09/08 01:53:36;;;;;;;3.55;2.78;;;21.70;64.20;;;;;;4996090;28;20048;-49
2022/09/08 01:56:05;;;;;;;4.88;2.33;;;21.70;64.00;;;;;;5000699;28;20041;-48
2022/09/08 01:58:35;;;;;;;2.58;2.38;;;21.70;63.70;;;;;;4991861;28;20376;-49
2022/09/08 02:01:02;;;;;;;6.53;2.53;;;21.70;63.70;;;;;;4992211;28;20043;-48
2022/09/08 02:03:31;;;;;;;4.53;2.33;;;21.60;63.70;;;;;;4997401;28;20046;-50
2022/09/08 02:06:00;;;;;;;5.32;3.17;;;21.60;63.80;;;;;;5000581;28;20546;-49
2022/09/08 02:08:28;;;;;;;5.55;2.40;;;21.60;63.90;;;;;;5011715;28;20050;-49
2022/09/08 02:10:58;;;;;;;5.60;2.83;;;21.60;63.80;;;;;;5003282;28;20399;-50
2022/09/08 02:13:26;;;;;;;4.85;2.40;;;21.60;63.90;;;;;;5003643;28;20044;-49
2022/09/08 02:15:58;;;;;;;3.50;2.55;;;21.60;64.10;;;;;;5003442;28;20053;-51
2022/09/08 02:18:28;;;;;;;3.40;2.60;;;21.60;64.50;;;;;;4992390;28;20090;-48
2022/09/08 02:21:11;;;;;;;5.28;2.40;;;21.50;64.40;;;;;;4990526;28;20070;-49
2022/09/08 02:23:46;;;;;;;3.15;2.10;;;21.60;64.90;;;;;;4993869;28;20048;-49
2022/09/08 02:26:22;;;;;;;2.70;2.30;;;21.50;64.60;;;;;;5003449;28;20042;-47
2022/09/08 02:28:51;;;;;;;5.32;2.20;;;21.50;64.60;;;;;;5011702;28;20114;-48
2022/09/08 02:31:20;;;;;;;4.00;2.00;;;21.50;64.40;;;;;;4992005;28;20698;-47
2022/09/08 02:33:49;;;;;;;2.45;2.00;;;21.50;64.40;;;;;;5000671;28;20088;-50
2022/09/08 02:36:17;;;;;;;2.22;2.08;;;21.50;64.50;;;;;;5010124;28;20038;-48
2022/09/08 02:38:52;;;;;;;3.20;2.00;;;21.50;64.80;;;;;;4984102;28;20057;-47
2022/09/08 02:41:23;;;;;;;4.65;2.20;;;21.50;65.30;;;;;;5001574;28;20077;-49
2022/09/08 02:43:50;;;;;;;5.63;2.08;;;21.50;65.20;;;;;;5003239;28;20042;-51
2022/09/08 02:46:17;;;;;;;2.85;2.10;;;21.50;64.80;;;;;;5010806;28;20057;-50
2022/09/08 02:48:46;;;;;;;6.75;2.08;;;21.50;64.40;;;;;;5006928;28;20505;-52
2022/09/08 02:51:14;;;;;;;4.40;2.08;;;21.50;64.10;;;;;;5001236;28;20060;-48
2022/09/08 02:53:43;;;;;;;3.90;1.90;;;21.40;63.90;;;;;;5003298;28;20038;-52
2022/09/08 02:56:19;;;;;;;3.33;1.88;;;21.40;64.00;;;;;;5008326;28;20049;-51
2022/09/08 02:58:45;;;;;;;3.55;1.90;;;21.40;64.00;;;;;;4989856;28;20038;-52
2022/09/08 03:01:12;;;;;;;4.80;2.35;;;21.40;64.30;;;;;;4998941;28;20213;-49
2022/09/08 03:03:42;;;;;;;2.40;1.88;;;21.40;64.40;;;;;;5006391;28;20137;-50
2022/09/08 03:06:16;;;;;;;2.60;1.58;;;21.40;64.60;;;;;;5004236;28;20086;-48
2022/09/08 03:08:46;;;;;;;4.30;1.55;;;21.40;64.50;;;;;;5002841;28;20562;-51
2022/09/08 03:11:17;;;;;;;3.75;1.70;;;21.40;64.50;;;;;;5002429;28;20045;-48
2022/09/08 03:13:44;;;;;;;3.88;1.55;;;21.40;64.60;;;;;;5006196;28;20066;-52
2022/09/08 03:16:10;;;;;;;3.85;1.77;;;21.40;64.60;;;;;;4997377;28;20042;-51
2022/09/08 03:18:37;;;;;;;3.17;1.90;;;21.40;64.70;;;;;;4996032;28;20081;-47
2022/09/08 03:21:10;;;;;;;3.63;2.08;;;21.40;64.60;;;;;;4999192;28;20046;-49
2022/09/08 03:23:40;;;;;;;3.83;1.90;;;21.40;64.80;;;;;;4973305;28;20047;-50
2022/09/08 03:26:15;;;;;;;6.53;2.42;;;21.40;64.80;;;;;;4991126;28;20062;-50
2022/09/08 03:28:47;;;;;;;4.30;1.77;;;21.50;65.30;;;;;;4994824;28;20494;-48
2022/09/08 03:31:16;;;;;;;2.38;1.58;;;21.40;65.60;;;;;;5008739;28;20049;-48
2022/09/08 03:33:43;;;;;;;4.75;2.40;;;21.50;65.10;;;;;;5003195;28;20041;-51
2022/09/08 03:36:14;;;;;;;6.22;2.53;;;21.50;65.10;;;;;;4993890;28;20535;-49
2022/09/08 03:38:44;;;;;;;7.40;2.67;;;21.40;65.40;;;;;;4998491;28;20045;-51
2022/09/08 03:41:13;;;;;;;6.18;2.83;;;21.40;66.00;;;;;;4984622;28;20649;-47
2022/09/08 03:43:44;;;;;;;8.65;2.88;;;21.40;65.80;;;;;;5011067;28;20410;-51
2022/09/08 03:46:11;;;;;;;3.22;2.20;;;21.40;66.20;;;;;;4990766;28;20204;-53
2022/09/08 03:48:37;;;;;;;5.25;1.98;;;21.30;66.40;;;;;;4998991;28;20031;-48
2022/09/08 03:51:16;;;;;;;5.45;2.00;;;21.30;66.40;;;;;;5008359;28;20403;-51
2022/09/08 03:53:44;;;;;;;7.07;2.22;;;21.30;67.40;;;;;;5001723;28;20041;-52
2022/09/08 03:56:15;;;;;;;6.20;2.65;;;21.20;66.80;;;;;;4996736;28;20044;-50
2022/09/08 03:58:51;;;;;;;5.10;3.08;;;21.20;67.40;;;;;;4996820;28;20411;-49
2022/09/08 04:01:18;;;;;;;4.15;1.58;;;21.10;67.40;;;;;;4989903;28;20092;-48
2022/09/08 04:03:45;;;;;;;3.33;2.28;;;21.10;67.10;;;;;;4990186;28;20129;-49
2022/09/08 04:06:13;;;;;;;4.68;2.10;;;21.00;67.20;;;;;;5000200;28;20109;-49
2022/09/08 04:08:40;;;;;;;3.40;2.03;;;21.00;67.70;;;;;;5000860;28;20041;-52
2022/09/08 04:11:15;;;;;;;3.78;2.55;;;20.90;67.90;;;;;;5008852;28;20049;-51
2022/09/08 04:13:41;;;;;;;3.53;1.63;;;20.80;68.30;;;;;;5001568;28;20038;-50
2022/09/08 04:16:08;;;;;;;4.85;2.00;;;20.80;67.90;;;;;;5001157;28;20517;-49
2022/09/08 04:18:42;;;;;;;4.53;1.90;;;20.70;68.50;;;;;;4998583;28;20034;-48
2022/09/08 04:21:10;;;;;;;4.57;1.77;;;20.70;69.30;;;;;;4988682;28;20054;-50
2022/09/08 04:23:40;;;;;;;3.35;2.25;;;20.60;69.20;;;;;;4995386;28;20042;-48
2022/09/08 04:26:12;;;;;;;3.67;1.95;;;20.60;69.50;;;;;;4986600;28;20046;-51
2022/09/08 04:28:42;;;;;;;5.15;2.33;;;20.60;69.70;;;;;;5009841;28;20441;-48
2022/09/08 04:31:13;;;;;;;2.95;1.98;;;20.60;69.80;;;;;;4998731;28;20093;-50
2022/09/08 04:33:40;;;;;;;6.38;2.53;;;20.60;69.80;;;;;;4993792;28;20490;-48
2022/09/08 04:36:09;;;;;;;4.43;2.30;;;20.50;69.60;;;;;;4998599;28;20052;-48
2022/09/08 04:38:53;;;;;;;3.58;2.30;;;20.50;69.70;;;;;;5003976;28;20065;-51
2022/09/08 04:41:23;;;;;;;3.83;1.88;;;20.50;69.90;;;;;;4988763;28;20054;-49
2022/09/08 04:43:52;;;;;;;4.15;2.33;;;20.50;70.30;;;;;;4992128;28;20053;-52
2022/09/08 04:46:20;;;;;;;4.88;2.28;;;20.50;70.20;;;;;;4992480;28;20049;-49
2022/09/08 04:48:48;;;;;;;4.32;2.10;;;20.50;70.30;;;;;;5008674;28;20038;-49
2022/09/08 04:51:17;;;;;;;4.05;1.90;;;20.50;70.40;;;;;;4991757;28;20047;-49
2022/09/08 04:53:44;;;;;;;3.83;1.90;;;20.50;70.50;;;;;;4998419;28;20529;-50
2022/09/08 04:56:12;;;;;;;5.00;1.90;;;20.50;70.40;;;;;;4999340;28;20046;-49
2022/09/08 04:58:41;;;;;;;4.65;2.22;;;20.50;69.90;;;;;;4991669;28;20050;-49
2022/09/08 05:01:13;;;;;;;4.43;2.22;;;20.50;70.10;;;;;;4984403;28;20119;-48
2022/09/08 05:03:40;;;;;;;5.75;2.10;;;20.50;69.90;;;;;;5008638;28;20056;-49
2022/09/08 05:06:14;;;;;;;4.75;1.80;;;20.50;69.70;;;;;;5008668;28;20046;-50
2022/09/08 05:08:45;;;;;;;5.68;2.05;;;20.50;70.30;;;;;;5002598;28;20454;-50
2022/09/08 05:11:13;;;;;;;5.47;3.10;;;20.50;69.80;;;;;;5003515;28;20049;-52
2022/09/08 05:13:41;;;;;;;5.13;1.98;;;20.50;69.80;;;;;;5004568;28;20053;-52
2022/09/08 05:16:13;;;;;;;3.55;2.17;;;20.50;69.80;;;;;;5010381;28;20124;-52
2022/09/08 05:18:40;;;;;;;;;;;20.50;70.20;;;;;;4994094;28;20034;-52
2022/09/08 05:21:17;;;;;;;2.53;1.90;;;20.50;70.00;;;;;;4995597;28;19992;-48
2022/09/08 05:23:47;;;;;;;2.42;2.15;;;20.50;69.40;;;;;;4986580;28;20060;-50
2022/09/08 05:26:17;;;;;;;4.05;2.70;;;20.50;69.50;;;;;;5012301;28;20056;-49
2022/09/08 05:28:46;;;;;;;6.18;2.63;;;20.40;69.80;;;;;;4988808;28;20122;-54
2022/09/08 05:31:15;;;;;;;2.80;2.30;;;20.50;69.80;;;;;;4996312;28;20052;-54
2022/09/08 05:33:45;;;;;;;4.63;3.05;;;20.40;70.20;;;;;;4992394;28;20549;-50
2022/09/08 05:36:21;;;;;;;2.60;2.40;;;20.40;70.40;;;;;;4991377;28;20138;-54
2022/09/08 05:38:51;;;;;;;2.90;2.05;;;20.40;70.50;;;;;;4994110;28;20117;-50
2022/09/08 05:41:18;;;;;;;3.03;2.20;;;20.40;70.50;;;;;;5002892;28;20042;-51
2022/09/08 05:43:50;;;;;;;4.35;2.30;;;20.40;70.60;;;;;;4977960;28;20055;-50
2022/09/08 05:46:18;;;;;;;2.65;2.38;;;20.40;71.10;;;;;;4983689;28;20042;-52
2022/09/08 05:48:47;;;;;;;4.40;2.35;;;20.40;70.90;;;;;;4994444;28;20049;-51
2022/09/08 05:51:19;;;;;;;6.38;2.80;;;20.40;70.90;;;;;;4984819;28;20057;-53
2022/09/08 05:53:49;;;;;;;2.75;2.55;;;20.40;70.80;;;;;;5011580;28;20038;-50
2022/09/08 05:56:20;;;;;;;6.35;2.67;;;20.50;70.70;;;;;;5004476;28;20041;-54
2022/09/08 05:58:54;;;;;;;5.03;2.55;;;20.50;70.70;;;;;;4986750;28;20046;-53
2022/09/08 06:01:26;;;;;;;4.15;2.95;;;20.50;71.20;;;;;;4999382;28;20502;-53
2022/09/08 06:03:53;;;;;;;4.10;2.45;;;20.50;70.90;;;;;;4992048;28;20050;-54
2022/09/08 06:06:20;;;;;;;2.92;2.60;;;20.50;70.90;;;;;;4990316;28;20125;-54
2022/09/08 06:08:48;;;;;;;3.55;2.30;;;20.50;70.80;;;;;;4999169;28;20038;-53
2022/09/08 06:11:17;;;;;;;4.10;2.67;;;20.50;70.90;;;;;;5001316;28;20042;-54
2022/09/08 06:13:46;;;;;;;4.07;2.63;;;20.50;70.90;;;;;;4980244;28;20038;-55
2022/09/08 06:16:17;;;;;;;2.80;2.60;;;20.50;71.20;;;;;;5001594;28;20050;-54
2022/09/08 06:18:47;;;;;;;3.72;2.75;;;20.50;71.00;;;;;;4991965;28;20050;-54
2022/09/08 06:21:34;;;;;;;3.53;3.15;;;20.50;70.80;;;;;;5002358;28;20069;-53
2022/09/08 06:24:04;;;;;;;5.03;3.42;;;20.50;70.50;;;;;;4992577;28;20410;-53
2022/09/08 06:27:06;;;;;;;2.85;2.15;;;20.50;70.40;;;;;;5000299;28;20045;-54
2022/09/08 06:30:04;;;;;;;3.22;2.17;;;20.60;70.90;;;;;;4999192;28;20079;-52
2022/09/08 06:32:38;;;;;;;3.22;2.45;;;20.60;70.90;;;;;;4992675;28;20039;-54
2022/09/08 06:35:16;;;;;;;4.10;2.70;;;20.50;70.40;;;;;;4996788;28;20495;-54
2022/09/08 06:37:48;;;;;;;2.90;2.30;;;20.50;71.30;;;;;;5002740;28;20038;-54
2022/09/08 06:40:36;;;;;;;;;;;20.50;70.70;;;;;;5011275;28;20056;-54
2022/09/08 06:43:27;;;;;;;1.90;1.55;;;20.50;70.80;;;;;;4994057;28;19928;-53
2022/09/08 06:45:57;;;;;;;3.13;1.70;;;20.50;70.40;;;;;;5000194;28;20060;-54
2022/09/08 06:48:29;;;;;;;2.70;2.10;;;20.40;70.10;;;;;;4995959;28;20426;-48
2022/09/08 06:50:56;;;;;;;;;;;20.40;70.70;;;;;;5007898;28;20409;-51
2022/09/08 06:53:32;;;;;;;3.88;1.88;;;20.40;70.90;;;;;;5002670;28;19975;-51
2022/09/08 06:56:24;;;;;;;2.15;1.67;;;20.40;70.30;;;;;;5001733;28;20034;-54
2022/09/08 06:59:34;;;;;;;2.60;1.90;;;20.30;70.70;;;;;;4990336;28;20429;-51
2022/09/08 07:02:38;;;;;;;1.73;1.52;;;20.30;71.80;;;;;;4990850;28;20066;-53
2022/09/08 07:05:16;;;;;;;3.22;1.20;;;20.40;71.90;;;;;;5001060;28;20041;-52
2022/09/08 07:08:06;;;;;;;2.50;1.10;;;20.40;71.00;;;;;;5005913;28;20832;-54
2022/09/08 07:10:44;;;;;;;1.52;1.13;;;20.40;71.90;;;;;;4998454;28;20432;-52
2022/09/08 07:13:26;;;;;;;1.85;1.17;;;20.40;71.30;;;;;;4998502;28;20384;-50
2022/09/08 07:16:08;;;;;;;1.25;1.15;;;20.40;71.30;;;;;;5006855;28;20402;-51
2022/09/08 07:18:51;;;;;;;1.35;0.90;;;20.40;71.40;;;;;;4990943;28;20069;-54
2022/09/08 07:21:41;;;;;;;1.58;1.13;;;20.50;71.70;;;;;;4989060;28;20057;-53
2022/09/08 07:24:17;;;;;;;3.22;2.03;;;20.50;71.40;;;;;;4994749;28;20049;-53
2022/09/08 07:26:50;;;;;;;3.70;2.08;;;20.60;70.80;;;;;;4988243;28;20054;-52
2022/09/08 07:29:23;;;;;;;1.73;1.23;;;20.70;70.70;;;;;;4984233;28;20034;-51
2022/09/08 07:31:52;;;;;;;1.92;1.20;;;20.70;70.60;;;;;;5000649;28;20042;-54
2022/09/08 07:34:36;;;;;;;1.67;1.38;;;20.70;70.30;;;;;;5001027;28;20038;-53
2022/09/08 07:37:24;;;;;;;2.38;2.15;;;20.70;71.10;;;;;;5001961;28;20045;-51
2022/09/08 07:40:15;;;;;;;1.50;1.35;;;20.80;71.00;;;;;;5000366;28;20034;-54
2022/09/08 07:42:59;;;;;;;2.25;1.60;;;20.90;71.20;;;;;;4998348;28;20133;-54
2022/09/08 07:45:54;;;;;;;1.38;1.27;;;20.90;71.20;;;;;;4987460;28;20057;-54
2022/09/08 07:48:34;;;;;;;1.95;1.65;;;21.00;71.10;;;;;;4991023;28;20046;-54
2022/09/08 07:51:16;;;;;;;1.55;1.45;;;21.10;71.50;;;;;;4989099;28;20030;-54
2022/09/08 07:54:09;;;;;;;4.85;2.00;;;21.20;71.50;;;;;;4991011;28;20125;-54
2022/09/08 07:56:52;;;;;;;1.75;1.58;;;21.30;70.70;;;;;;4998252;28;20038;-53
2022/09/08 08:00:03;;;;;;;2.33;1.88;;;21.40;70.10;;;;;;4988592;28;20118;-54
2022/09/08 08:02:49;;;;;;;2.10;1.90;;;21.50;69.80;;;;;;4991835;28;20050;-53
2022/09/08 08:05:29;;;;;;;2.75;1.60;;;21.60;70.00;;;;;;4971585;28;20054;-51
2022/09/08 08:08:11;;;;;;;2.35;1.88;;;21.60;69.80;;;;;;4992811;28;20046;-51
2022/09/08 08:11:11;;;;;;;3.03;2.30;;;21.70;70.00;;;;;;5002633;28;20046;-53
2022/09/08 08:13:50;;;;;;;3.03;2.10;;;21.70;68.90;;;;;;4962674;28;20756;-50
2022/09/08 08:16:43;;;;;;;2.28;2.00;;;21.70;69.00;;;;;;4997870;28;20108;-53
2022/09/08 08:19:53;;;;;;;2.25;2.05;;;21.70;69.50;;;;;;4996255;28;20046;-52
2022/09/08 08:23:05;;;;;;;3.13;1.85;;;21.80;69.10;;;;;;4979906;28;20054;-53
2022/09/08 08:25:44;;;;;;;3.10;2.25;;;21.80;68.00;;;;;;4970215;28;20055;-50
2022/09/08 08:28:14;;;;;;;2.30;1.75;;;21.80;68.20;;;;;;4997622;28;20077;-51
2022/09/08 08:31:02;;;;;;;2.55;2.00;;;21.80;68.50;;;;;;5001128;28;20053;-51
2022/09/08 08:33:56;;;;;;;2.92;1.48;;;21.90;68.10;;;;;;4999394;28;20620;-52
2022/09/08 08:36:29;;;;;;;1.38;1.20;;;21.80;67.00;;;;;;4999470;28;20066;-53
2022/09/08 08:39:06;;;;;;;1.80;1.10;;;21.80;67.60;;;;;;5001761;28;20045;-49
2022/09/08 08:41:59;;;;;;;2.25;1.15;;;21.90;68.00;;;;;;5008240;28;20052;-52
2022/09/08 08:44:36;;;;;;;;;;;21.90;66.90;;;;;;4982029;28;20052;-54
2022/09/08 08:47:28;;;;;;;1.55;0.98;;;21.90;67.00;;;;;;5003033;28;19957;-51
2022/09/08 08:50:13;;;;;;;2.60;1.10;;;22.00;66.30;;;;;;5004376;28;20045;-54
2022/09/08 08:52:57;;;;;;;1.08;0.73;;;22.00;66.90;;;;;;5006171;28;20062;-52
2022/09/08 08:55:26;;;;;;;3.22;1.13;;;22.10;66.40;;;;;;4993092;28;20042;-54
2022/09/08 08:58:28;;;;;;;2.80;0.90;;;22.10;65.80;;;;;;4992945;28;20495;-52
2022/09/08 09:01:39;;;;;;;2.40;1.02;;;22.20;66.20;;;;;;4991723;28;20042;-54
2022/09/08 09:04:18;;;;;;;1.73;0.95;;;22.20;64.90;;;;;;4998223;28;20517;-50
2022/09/08 09:07:18;;;;;;;2.75;0.80;;;22.30;65.70;;;;;;5004919;28;20053;-52
2022/09/08 09:10:19;;;;;;;1.40;1.00;;;22.30;65.60;;;;;;5013913;28;20418;-51
2022/09/08 09:13:16;;;;;;;2.15;1.10;;;22.30;65.50;;;;;;4992082;28;20503;-54
2022/09/08 09:16:08;;;;;;;1.50;0.80;;;22.40;64.80;;;;;;5029383;23;20504;-50
2022/09/08 09:19:09;;;;;;;2.70;0.80;;;22.50;64.80;;;;;;5008967;28;20069;-49
2022/09/08 09:21:57;;;;;;;2.97;0.90;;;22.50;65.80;;;;;;5012697;28;20046;-48
2022/09/08 09:24:42;;;;;;;3.50;1.10;;;22.60;65.20;;;;;;4992078;28;20550;-53
2022/09/08 09:27:42;;;;;;;3.33;1.15;;;22.70;64.30;;;;;;4997174;28;20069;-53
2022/09/08 09:30:12;;;;;;;1.60;1.20;;;22.80;63.40;;;;;;5004386;28;20049;-51
2022/09/08 09:32:55;;;;;;;0.95;0.80;;;22.80;63.20;;;;;;4995278;28;20039;-52
2022/09/08 09:35:53;;;;;;;2.50;0.85;;;22.80;62.10;;;;;;5001435;28;20049;-49
2022/09/08 09:39:00;;;;;;;1.50;0.80;;;22.70;62.90;;;;;;4973696;28;20066;-48
2022/09/08 09:41:55;;;;;;;3.22;0.70;;;22.70;63.50;;;;;;4998661;28;20145;-51
2022/09/08 09:44:48;;;;;;;2.78;0.95;;;22.70;62.60;;;;;;4992831;28;20470;-50
2022/09/08 09:47:17;;;;;;;1.92;0.70;;;22.70;62.90;;;;;;4992841;28;20085;-50
2022/09/08 09:50:27;;;;;;;1.92;0.70;;;22.60;63.20;;;;;;4988740;28;20046;-50
2022/09/08 09:53:12;;;;;;;4.75;0.60;;;22.60;61.90;;;;;;4970754;28;20074;-52
2022/09/08 09:56:30;;;;;;;0.90;0.65;;;22.50;61.50;;;;;;5000086;28;20038;-51
2022/09/08 09:59:32;;;;;;;4.57;1.08;;;22.50;62.00;;;;;;4988845;28;20058;-51
2022/09/08 10:02:23;;;;;;;2.22;0.40;;;22.50;61.40;;;;;;5003462;28;20046;-53
2022/09/08 10:05:12;;;;;;;1.63;0.50;;;22.50;61.70;;;;;;5011684;28;20045;-53
2022/09/08 10:08:09;;;;;;;4.75;1.15;;;22.60;61.60;;;;;;5003868;28;20069;-50
2022/09/08 10:11:05;;;;;;;1.02;0.50;;;22.60;60.50;;;;;;4990794;28;20041;-50
2022/09/08 10:13:50;;;;;;;0.80;0.35;;;22.60;59.70;;;;;;5000059;28;20042;-49
2022/09/08 10:16:48;;;;;;;0.77;0.40;;;22.70;59.60;;;;;;4991856;28;20048;-54
2022/09/08 10:19:42;;;;;;;2.05;0.98;;;22.80;59.60;;;;;;4989559;28;20045;-50
2022/09/08 10:22:33;;;;;;;1.83;0.50;;;22.90;59.10;;;;;;5001728;28;20097;-52
2022/09/08 10:25:15;;;;;;;1.23;0.50;;;23.00;59.80;;;;;;4996534;28;20057;-54
2022/09/08 10:28:06;;;;;;;1.90;1.17;;;23.10;58.70;;;;;;4997554;28;20061;-50
2022/09/08 10:30:54;;;;;;;0.63;0.45;;;23.30;59.10;;;;;;4984546;28;20411;-51
2022/09/08 10:33:34;;;;;;;1.33;0.70;;;23.40;58.10;;;;;;4987991;28;20038;-50
2022/09/08 10:36:15;;;;;;;2.55;1.08;;;23.60;58.00;;;;;;5000343;28;20507;-51
2022/09/08 10:39:21;;;;;;;2.17;0.45;;;23.70;58.30;;;;;;5011888;28;20049;-51
2022/09/08 10:42:15;;;;;;;2.15;0.70;;;23.80;57.70;;;;;;4998564;28;20039;-49
2022/09/08 10:44:57;;;;;;;0.80;0.50;;;23.90;57.30;;;;;;4996456;28;20064;-50
2022/09/08 10:48:05;;;;;;;2.28;0.50;;;24.00;56.50;;;;;;4981967;28;20044;-49
2022/09/08 10:50:35;;;;;;;2.50;0.85;;;24.00;56.30;;;;;;4998072;28;20031;-49
2022/09/08 10:53:25;;;;;;;1.38;0.68;;;24.00;56.30;;;;;;5008969;28;20060;-51
2022/09/08 10:56:06;;;;;;;1.92;0.50;;;23.90;55.40;;;;;;4994021;28;20077;-53
2022/09/08 10:59:00;;;;;;;0.75;0.50;;;23.90;55.00;;;;;;4999243;28;20037;-50
2022/09/08 11:02:12;;;;;;;1.70;0.35;;;23.90;54.90;;;;;;5011440;28;20042;-50
2022/09/08 11:05:24;;;;;;;1.05;0.40;;;23.90;55.50;;;;;;5000245;28;20410;-50
2022/09/08 11:08:16;;;;;;;1.05;0.77;;;23.90;55.90;;;;;;4995170;28;20450;-49
2022/09/08 11:10:55;;;;;;;1.50;0.52;;;24.00;54.90;;;;;;4994511;28;20042;-50
2022/09/08 11:13:37;;;;;;;2.60;0.90;;;23.90;54.60;;;;;;4990169;28;20053;-51
2022/09/08 11:16:28;;;;;;;1.95;0.93;;;23.90;54.30;;;;;;4987971;28;20514;-52
2022/09/08 11:19:30;;;;;;;0.63;0.40;;;23.90;53.90;;;;;;4982789;28;20049;-50
2022/09/08 11:22:16;;;;;;;0.98;0.50;;;23.80;53.90;;;;;;5001990;28;20039;-49
2022/09/08 11:25:09;;;;;;;0.40;0.40;;;23.90;53.70;;;;;;5003240;28;20049;-53
2022/09/08 11:28:13;;;;;;;2.58;0.47;;;23.80;54.60;;;;;;4997439;28;20050;-49
2022/09/08 11:31:03;;;;;;;2.20;0.80;;;23.80;54.60;;;;;;4994840;28;20289;-54
2022/09/08 11:34:16;;;;;;;1.48;0.45;;;23.80;54.70;;;;;;4992106;28;20108;-53
2022/09/08 11:37:02;;;;;;;0.60;0.40;;;23.80;55.10;;;;;;5003043;28;20049;-49
2022/09/08 11:39:55;;;;;;;1.77;1.27;;;23.80;54.40;;;;;;4992699;28;20050;-53
2022/09/08 11:42:39;;;;;;;;;;;23.90;53.90;;;;;;4994612;28;20049;-54
2022/09/08 11:45:22;;;;;;;1.02;0.70;;;24.00;55.10;;;;;;5002547;28;20012;-50
2022/09/08 11:48:17;;;;;;;3.30;0.30;;;24.00;53.40;;;;;;5005105;28;20520;-53
2022/09/08 11:51:07;;;;;;;0.90;0.50;;;24.00;54.50;;;;;;5011919;28;20049;-53
2022/09/08 11:54:08;;;;;;;0.80;0.32;;;24.10;53.00;;;;;;4997393;28;20042;-54
2022/09/08 11:57:42;;;;;;;0.40;0.38;;;24.30;53.00;;;;;;5000906;28;20046;-53
2022/09/08 12:00:45;;;;;;;1.08;0.50;;;24.40;53.20;;;;;;4953592;28;20059;-54
2022/09/08 12:03:34;;;;;;;1.67;0.93;;;24.50;52.40;;;;;;4940531;28;20059;-51
2022/09/08 12:06:23;;;;;;;0.73;0.43;;;24.50;52.80;;;;;;4997462;28;20055;-51
2022/09/08 12:09:26;;;;;;;1.35;0.65;;;24.60;52.60;;;;;;5016122;28;20537;-50
2022/09/08 12:12:19;;;;;;;0.80;0.32;;;24.70;51.90;;;;;;5002595;28;20074;-49
2022/09/08 12:15:09;;;;;;;1.05;0.50;;;24.70;51.10;;;;;;5001028;28;20042;-54
2022/09/08 12:18:01;;;;;;;4.35;0.50;;;24.80;50.20;;;;;;4994872;28;20105;-50
2022/09/08 12:20:47;;;;;;;1.40;0.68;;;24.80;50.30;;;;;;4995791;28;20409;-53
2022/09/08 12:23:31;;;;;;;1.60;0.40;;;24.80;50.50;;;;;;4996440;28;20471;-53
2022/09/08 12:26:08;;;;;;;2.20;0.60;;;24.80;50.90;;;;;;5002319;28;20039;-51
2022/09/08 12:28:53;;;;;;;1.02;0.50;;;24.80;51.30;;;;;;4995150;28;20101;-52
2022/09/08 12:31:35;;;;;;;1.50;0.40;;;24.70;51.30;;;;;;4998660;28;20269;-52
2022/09/08 12:34:23;;;;;;;1.10;0.57;;;24.70;50.70;;;;;;5005759;28;20050;-54
2022/09/08 12:37:02;;;;;;;0.40;0.40;;;24.70;50.30;;;;;;5001227;28;20312;-50
2022/09/08 12:39:59;;;;;;;0.70;0.35;;;24.80;50.70;;;;;;4994542;28;20137;-53
2022/09/08 12:42:50;;;;;;;0.50;0.40;;;24.70;51.20;;;;;;5005306;28;20059;-51
2022/09/08 12:45:31;;;;;;;2.30;0.90;;;24.80;51.40;;;;;;4991901;28;20399;-53
2022/09/08 12:48:32;;;;;;;3.00;0.45;;;24.80;51.40;;;;;;4996236;28;20065;-56
2022/09/08 12:51:27;;;;;;;1.75;0.55;;;24.90;50.80;;;;;;4996539;28;20030;-55
2022/09/08 12:54:37;;;;;;;0.88;0.40;;;24.90;50.70;;;;;;5008866;28;20045;-57
2022/09/08 12:57:11;;;;;;;2.42;0.95;;;25.00;50.20;;;;;;5004478;28;20048;-52
2022/09/08 12:59:52;;;;;;;1.20;0.55;;;25.00;50.70;;;;;;5002077;28;20050;-52
2022/09/08 13:02:19;;;;;;;0.68;0.40;;;25.10;50.10;;;;;;4996817;28;20035;-53
2022/09/08 13:05:19;;;;;;;2.17;0.60;;;25.10;50.20;;;;;;4994677;28;20042;-54
2022/09/08 13:08:21;;;;;;;0.45;0.25;;;25.20;49.60;;;;;;4995161;28;20046;-52
2022/09/08 13:10:59;;;;;;;1.63;0.57;;;25.30;49.30;;;;;;5003414;28;20053;-54
2022/09/08 13:13:37;;;;;;;1.58;0.50;;;25.30;49.90;;;;;;5001076;28;20042;-55
2022/09/08 13:16:31;;;;;;;1.70;0.40;;;25.40;49.20;;;;;;4994584;28;20121;-50
2022/09/08 13:19:11;;;;;;;1.33;0.93;;;25.40;49.40;;;;;;4996596;28;20153;-55
2022/09/08 13:22:06;;;;;;;2.20;0.50;;;25.40;48.80;;;;;;5005169;28;20050;-52
2022/09/08 13:24:48;;;;;;;0.95;0.47;;;25.40;48.40;;;;;;4996177;28;20486;-54
2022/09/08 13:27:31;;;;;;;0.77;0.40;;;25.40;48.40;;;;;;5005757;28;20073;-49
2022/09/08 13:30:09;;;;;;;1.60;0.85;;;25.40;48.90;;;;;;5007764;28;20046;-49
2022/09/08 13:33:41;;;;;;;2.50;0.68;;;25.50;49.00;;;;;;5016407;28;20491;-51
2022/09/08 13:36:35;;;;;;;2.83;0.60;;;25.60;49.60;;;;;;4957969;28;20055;-53
2022/09/08 13:39:19;;;;;;;3.47;0.52;;;26.00;49.20;;;;;;5004232;28;20049;-54
2022/09/08 13:42:24;;;;;;;2.35;0.65;;;26.50;48.90;;;;;;5010975;28;20042;-53
2022/09/08 13:44:58;;;;;;;1.38;0.50;;;27.30;49.20;;;;;;4999083;28;20054;-55
2022/09/08 13:47:58;;;;;;;2.13;0.30;;;28.20;48.40;;;;;;5002124;28;20045;-56
2022/09/08 13:51:06;;;;;;;1.58;0.43;;;29.40;47.50;;;;;;5001705;28;20052;-51
2022/09/08 13:53:54;;;;;;;1.77;0.25;;;30.70;44.80;;;;;;5008623;28;20039;-54
2022/09/08 13:56:59;;;;;;;2.65;0.60;;;31.60;43.50;;;;;;5000874;28;20034;-53
2022/09/08 13:59:42;;;;;;;2.85;0.38;;;32.60;42.70;;;;;;4999674;28;20491;-55
2022/09/08 14:02:30;;;;;;;0.60;0.20;;;33.60;41.00;;;;;;4994934;28;20181;-54